createdAt,value
2023-01-19T00:00:54.252Z,12.30
2023-01-19T00:03:21.902Z,14.60
2023-01-19T00:05:49.707Z,14.10
2023-01-19T00:08:17.605Z,14.20
2023-01-19T00:10:53.438Z,13.40
2023-01-19T00:13:20.305Z,15.10
2023-01-19T00:15:47.073Z,16.40
2023-01-19T00:18:16.251Z,15.80
2023-01-19T00:20:48.955Z,11.90
2023-01-19T00:23:16.716Z,14.40
2023-01-19T00:25:43.873Z,14.00
2023-01-19T00:28:16.021Z,14.80
2023-01-19T00:30:45.608Z,15.60
2023-01-19T00:33:15.464Z,15.50
2023-01-19T00:35:42.773Z,12.80
2023-01-19T00:38:10.790Z,16.20
2023-01-19T00:40:38.571Z,14.70
2023-01-19T00:43:05.693Z,12.20
2023-01-19T00:45:33.905Z,16.00
2023-01-19T00:48:01.165Z,18.10
2023-01-19T00:50:29.488Z,14.40
2023-01-19T00:52:57.615Z,16.50
2023-01-19T00:55:24.967Z,12.90
2023-01-19T00:57:52.581Z,18.40
2023-01-19T01:00:20.199Z,14.70
2023-01-19T01:02:48.038Z,14.40
2023-01-19T01:05:15.455Z,16.80
2023-01-19T01:07:45.267Z,16.20
2023-01-19T01:10:15.962Z,15.00
2023-01-19T01:12:57.454Z,12.10
2023-01-19T01:15:27.777Z,15.40
2023-01-19T01:17:55.080Z,15.10
2023-01-19T01:20:28.595Z,14.80
2023-01-19T01:22:56.879Z,12.70
2023-01-19T01:25:25.307Z,14.30
2023-01-19T01:27:52.464Z,13.40
2023-01-19T01:30:19.811Z,14.30
2023-01-19T01:32:46.772Z,13.60
2023-01-19T01:35:14.385Z,14.50
2023-01-19T01:37:42.922Z,18.30
2023-01-19T01:40:15.376Z,12.60
2023-01-19T01:42:43.101Z,14.80
2023-01-19T01:45:33.516Z,12.90
2023-01-19T01:48:13.182Z,13.70
2023-01-19T01:51:09.089Z,16.60
2023-01-19T01:53:36.959Z,14.10
2023-01-19T01:56:08.399Z,12.10
2023-01-19T01:58:36.608Z,13.20
2023-01-19T02:01:22.894Z,10.90
2023-01-19T02:03:50.793Z,13.80
2023-01-19T02:06:18.007Z,12.30
2023-01-19T02:09:10.182Z,12.30
2023-01-19T02:11:55.958Z,12.10
2023-01-19T02:14:22.968Z,17.20
2023-01-19T02:16:49.980Z,14.60
2023-01-19T02:19:24.942Z,12.80
2023-01-19T02:22:48.294Z,12.50
2023-01-19T02:25:15.528Z,13.90
2023-01-19T02:27:42.792Z,11.30
2023-01-19T02:30:10.957Z,13.30
2023-01-19T02:32:37.866Z,14.20
2023-01-19T02:35:06.190Z,13.30
2023-01-19T02:37:37.652Z,15.30
2023-01-19T02:40:08.947Z,9.50
2023-01-19T02:42:52.438Z,11.70
2023-01-19T02:45:23.793Z,10.20
2023-01-19T02:47:52.184Z,9.90
2023-01-19T02:50:56.914Z,12.50
2023-01-19T02:53:33.642Z,9.60
2023-01-19T02:56:07.546Z,11.70
2023-01-19T02:58:59.264Z,10.60
2023-01-19T03:01:41.458Z,9.80
2023-01-19T03:04:24.238Z,11.60
2023-01-19T03:07:21.914Z,10.00
2023-01-19T03:10:38.380Z,9.70
2023-01-19T03:13:23.846Z,8.30
2023-01-19T03:15:54.729Z,8.10
2023-01-19T03:18:28.208Z,8.30
2023-01-19T03:20:58.181Z,9.50
2023-01-19T03:23:31.002Z,6.80
2023-01-19T03:25:59.381Z,7.00
2023-01-19T03:28:28.674Z,9.00
2023-01-19T03:31:13.210Z,7.50
2023-01-19T03:33:44.176Z,7.60
2023-01-19T03:36:19.703Z,7.70
2023-01-19T03:38:48.716Z,7.30
2023-01-19T03:41:17.847Z,6.70
2023-01-19T03:43:47.218Z,6.40
2023-01-19T03:46:17.555Z,5.80
2023-01-19T03:48:46.241Z,5.40
2023-01-19T03:51:14.535Z,6.00
2023-01-19T03:53:42.181Z,5.60
2023-01-19T03:56:35.352Z,5.60
2023-01-19T03:59:05.544Z,5.90
2023-01-19T04:01:32.931Z,5.50
2023-01-19T04:03:59.853Z,4.00
2023-01-19T04:06:27.218Z,4.80
2023-01-19T04:08:54.011Z,4.20
2023-01-19T04:11:20.901Z,4.70
2023-01-19T04:13:48.273Z,3.60
2023-01-19T04:16:20.127Z,3.20
2023-01-19T04:18:50.047Z,2.20
2023-01-19T04:21:17.723Z,2.30
2023-01-19T04:23:47.314Z,3.70
2023-01-19T04:26:14.070Z,1.70
2023-01-19T04:28:41.219Z,1.70
2023-01-19T04:31:08.503Z,3.50
2023-01-19T04:33:35.325Z,1.40
2023-01-19T04:36:02.486Z,2.60
2023-01-19T04:38:29.628Z,1.00
2023-01-19T04:40:57.216Z,1.30
2023-01-19T04:43:24.272Z,2.70
2023-01-19T04:45:51.522Z,3.50
2023-01-19T04:48:18.822Z,3.20
2023-01-19T04:50:46.604Z,3.00
2023-01-19T04:53:13.939Z,3.60
2023-01-19T04:55:41.136Z,2.50
2023-01-19T04:58:08.096Z,3.60
2023-01-19T05:00:35.105Z,3.60
2023-01-19T05:03:02.321Z,2.90
2023-01-19T05:05:33.436Z,2.10
2023-01-19T05:08:00.760Z,2.70
2023-01-19T05:10:27.852Z,1.50
2023-01-19T05:12:55.117Z,2.50
2023-01-19T05:15:22.213Z,5.50
2023-01-19T05:17:49.105Z,2.00
2023-01-19T05:20:18.035Z,1.70
2023-01-19T05:22:52.440Z,3.40
2023-01-19T05:25:19.986Z,2.20
2023-01-19T05:27:47.037Z,4.00
2023-01-19T05:30:14.306Z,3.60
2023-01-19T05:32:41.955Z,3.90
2023-01-19T05:35:09.762Z,5.20
2023-01-19T05:37:37.334Z,4.20
2023-01-19T05:40:04.742Z,6.60
2023-01-19T05:42:32.898Z,3.60
2023-01-19T05:45:00.203Z,3.30
2023-01-19T05:47:30.611Z,4.20
2023-01-19T05:49:58.174Z,2.70
2023-01-19T05:52:25.648Z,4.40
2023-01-19T05:54:53.140Z,3.70
2023-01-19T05:57:23.222Z,5.90
2023-01-19T05:59:52.519Z,2.20
2023-01-19T06:02:19.761Z,2.10
2023-01-19T06:04:46.724Z,5.10
2023-01-19T06:07:13.720Z,4.10
2023-01-19T06:09:40.731Z,1.60
2023-01-19T06:12:08.249Z,2.80
2023-01-19T06:14:37.167Z,4.30
2023-01-19T06:17:06.231Z,7.10
2023-01-19T06:19:33.518Z,5.40
2023-01-19T06:22:00.594Z,3.70
2023-01-19T06:24:28.675Z,5.40
2023-01-19T06:26:55.616Z,2.60
2023-01-19T06:29:25.905Z,2.00
2023-01-19T06:31:53.966Z,3.50
2023-01-19T06:34:21.527Z,4.70
2023-01-19T06:36:48.503Z,3.10
2023-01-19T06:39:15.586Z,5.60
2023-01-19T06:41:42.431Z,8.00
2023-01-19T06:44:11.948Z,8.50
2023-01-19T06:46:38.927Z,8.00
2023-01-19T06:49:09.324Z,6.50
2023-01-19T06:51:36.405Z,9.70
2023-01-19T06:54:03.211Z,9.40
2023-01-19T06:56:30.278Z,9.20
2023-01-19T06:58:57.110Z,9.40
2023-01-19T07:01:24.354Z,11.10
2023-01-19T07:03:54.696Z,8.20
2023-01-19T07:06:21.638Z,10.70
2023-01-19T07:08:48.998Z,9.80
2023-01-19T07:11:25.494Z,7.20
2023-01-19T07:13:58.551Z,9.50
2023-01-19T07:16:26.217Z,8.60
2023-01-19T07:18:53.754Z,7.90
2023-01-19T07:21:21.141Z,6.30
2023-01-19T07:23:54.030Z,4.60
2023-01-19T07:26:21.852Z,7.70
2023-01-19T07:28:49.969Z,7.50
2023-01-19T07:31:18.247Z,6.10
2023-01-19T07:33:45.459Z,6.10
2023-01-19T07:36:12.778Z,8.70
2023-01-19T07:38:39.709Z,6.20
2023-01-19T07:41:10.169Z,8.20
2023-01-19T07:43:37.809Z,6.60
2023-01-19T07:46:06.320Z,7.90
2023-01-19T07:48:36.256Z,6.90
2023-01-19T07:51:11.090Z,9.20
2023-01-19T07:53:40.211Z,6.30
2023-01-19T07:56:07.924Z,6.70
2023-01-19T07:58:34.764Z,8.70
2023-01-19T08:01:06.571Z,6.50
2023-01-19T08:03:33.665Z,8.60
2023-01-19T08:06:02.584Z,10.20
2023-01-19T08:08:32.683Z,8.10
2023-01-19T08:11:00.131Z,8.40
2023-01-19T08:13:27.400Z,10.10
2023-01-19T08:15:54.672Z,6.90
2023-01-19T08:18:21.685Z,6.50
2023-01-19T08:20:48.969Z,7.30
2023-01-19T08:23:16.010Z,6.20
2023-01-19T08:25:45.168Z,8.00
2023-01-19T08:28:14.543Z,5.90
2023-01-19T08:30:43.728Z,7.90
2023-01-19T08:33:12.817Z,9.30
2023-01-19T08:35:43.473Z,11.20
2023-01-19T08:38:11.011Z,9.10
2023-01-19T08:40:39.863Z,16.90
2023-01-19T08:43:15.144Z,10.60
2023-01-19T08:45:48.527Z,10.80
2023-01-19T08:48:17.187Z,14.10
2023-01-19T08:50:47.648Z,9.10
2023-01-19T08:53:15.040Z,9.60
2023-01-19T08:55:42.180Z,7.30
2023-01-19T08:58:11.978Z,10.60
2023-01-19T09:00:39.613Z,15.70
2023-01-19T09:03:09.541Z,13.40
2023-01-19T09:05:39.135Z,11.80
2023-01-19T09:08:13.893Z,11.90
2023-01-19T09:10:46.449Z,10.00
2023-01-19T09:13:13.700Z,12.00
2023-01-19T09:15:41.430Z,11.70
2023-01-19T09:18:13.472Z,14.40
2023-01-19T09:20:42.859Z,12.20
2023-01-19T09:23:15.379Z,17.50
2023-01-19T09:25:44.195Z,11.50
2023-01-19T09:28:12.670Z,13.20
2023-01-19T09:30:41.136Z,14.00
2023-01-19T09:33:11.337Z,11.50
2023-01-19T09:35:39.420Z,9.40
2023-01-19T09:38:10.742Z,11.00
2023-01-19T09:40:45.770Z,11.10
2023-01-19T09:43:19.098Z,12.90
2023-01-19T09:45:51.348Z,15.40
2023-01-19T09:48:27.244Z,14.60
2023-01-19T09:50:56.918Z,12.90
2023-01-19T09:53:37.098Z,15.80
2023-01-19T09:56:04.824Z,10.20
2023-01-19T09:58:32.331Z,10.50
2023-01-19T10:01:05.864Z,14.20
2023-01-19T10:03:35.291Z,10.20
2023-01-19T10:06:05.594Z,13.40
2023-01-19T10:08:44.143Z,11.70
2023-01-19T10:11:52.071Z,15.00
2023-01-19T10:14:33.297Z,8.30
2023-01-19T10:17:33.093Z,13.80
2023-01-19T10:20:02.515Z,14.80
2023-01-19T10:22:29.552Z,10.00
2023-01-19T10:24:59.530Z,10.40
2023-01-19T10:27:52.015Z,11.40
2023-01-19T10:30:25.915Z,12.00
2023-01-19T10:32:53.651Z,9.70
2023-01-19T10:35:26.339Z,9.40
2023-01-19T10:37:59.033Z,6.50
2023-01-19T10:40:40.264Z,9.50
2023-01-19T10:43:36.261Z,9.50
2023-01-19T10:46:06.852Z,10.20
2023-01-19T10:48:42.116Z,9.30
2023-01-19T10:51:10.889Z,10.70
2023-01-19T10:53:38.034Z,14.40
2023-01-19T10:56:16.875Z,16.80
2023-01-19T10:58:43.830Z,11.90
2023-01-19T11:01:25.304Z,17.90
2023-01-19T11:04:00.146Z,13.70
2023-01-19T11:06:29.401Z,10.60
2023-01-19T11:09:31.581Z,12.70
2023-01-19T11:12:01.328Z,13.30
2023-01-19T11:14:31.057Z,15.90
2023-01-19T11:16:58.849Z,12.00
2023-01-19T11:19:32.623Z,11.50
2023-01-19T11:22:22.480Z,16.70
2023-01-19T11:24:50.566Z,15.90
2023-01-19T11:27:19.939Z,21.10
2023-01-19T11:30:00.390Z,15.70
2023-01-19T11:32:27.679Z,12.70
2023-01-19T11:34:54.428Z,11.50
2023-01-19T11:37:21.239Z,15.70
2023-01-19T11:39:49.933Z,12.40
2023-01-19T11:42:18.412Z,15.40
2023-01-19T11:44:51.997Z,15.80
2023-01-19T11:47:26.841Z,11.70
2023-01-19T11:50:06.789Z,15.00
2023-01-19T11:52:48.618Z,15.80
2023-01-19T11:55:33.924Z,14.80
2023-01-19T11:58:01.046Z,17.60
2023-01-19T12:00:35.714Z,17.00
2023-01-19T12:03:33.001Z,18.10
2023-01-19T12:06:16.121Z,16.40
2023-01-19T12:08:46.523Z,17.10
2023-01-19T12:11:19.790Z,20.50
2023-01-19T12:13:46.864Z,22.60
2023-01-19T12:16:23.951Z,20.30
2023-01-19T12:19:26.989Z,20.70
2023-01-19T12:21:54.044Z,19.90
2023-01-19T12:24:36.641Z,19.20
2023-01-19T12:27:17.105Z,19.30
2023-01-19T12:29:44.482Z,18.30
2023-01-19T12:32:14.383Z,22.20
2023-01-19T12:34:46.786Z,20.60
2023-01-19T12:37:31.444Z,18.60
2023-01-19T12:40:01.218Z,19.10
2023-01-19T12:42:28.999Z,16.00
2023-01-19T12:45:24.868Z,19.50
2023-01-19T12:47:54.405Z,19.00
2023-01-19T12:50:24.268Z,20.00
2023-01-19T12:52:59.050Z,15.80
2023-01-19T12:55:31.163Z,15.90
2023-01-19T12:58:08.008Z,15.10
2023-01-19T13:00:43.028Z,13.70
2023-01-19T13:03:19.091Z,15.30
2023-01-19T13:05:54.836Z,15.30
2023-01-19T13:08:57.809Z,16.70
2023-01-19T13:11:27.275Z,8.90
2023-01-19T13:13:59.211Z,12.00
2023-01-19T13:16:27.680Z,14.40
2023-01-19T13:18:59.114Z,11.60
2023-01-19T13:21:31.904Z,14.80
2023-01-19T13:24:06.977Z,13.00
2023-01-19T13:27:03.677Z,13.10
2023-01-19T13:29:40.838Z,11.80
2023-01-19T13:32:17.766Z,11.10
2023-01-19T13:34:47.830Z,10.60
2023-01-19T13:37:20.278Z,12.40
2023-01-19T13:39:51.104Z,13.20
2023-01-19T13:42:30.080Z,12.10
2023-01-19T13:45:00.196Z,11.60
2023-01-19T13:47:41.814Z,9.50
2023-01-19T13:50:21.714Z,9.60
2023-01-19T13:52:50.960Z,8.00
2023-01-19T13:55:18.818Z,8.70
2023-01-19T13:57:46.860Z,10.00
2023-01-19T14:00:28.886Z,11.00
2023-01-19T14:02:58.003Z,5.40
2023-01-19T14:05:28.467Z,5.00
2023-01-19T14:08:05.990Z,5.50
2023-01-19T14:10:36.208Z,4.10
2023-01-19T14:13:06.280Z,6.90
2023-01-19T14:15:34.604Z,5.10
2023-01-19T14:18:10.103Z,5.50
2023-01-19T14:20:37.404Z,6.10
2023-01-19T14:23:05.185Z,2.90
2023-01-19T14:25:35.141Z,5.30
2023-01-19T14:28:30.798Z,2.60
2023-01-19T14:31:00.527Z,2.20
2023-01-19T14:33:40.251Z,4.40
2023-01-19T14:36:26.745Z,5.10
2023-01-19T14:38:54.837Z,6.70
2023-01-19T14:41:29.001Z,4.30
2023-01-19T14:43:56.957Z,5.60
2023-01-19T14:46:25.067Z,7.40
2023-01-19T14:49:01.555Z,5.10
2023-01-19T14:51:28.606Z,6.40
2023-01-19T14:53:58.739Z,6.30
2023-01-19T14:56:31.714Z,3.50
2023-01-19T14:59:00.168Z,6.70
2023-01-19T15:01:32.110Z,4.90
2023-01-19T15:03:59.101Z,4.50
2023-01-19T15:06:26.598Z,4.30
2023-01-19T15:08:54.024Z,4.60
2023-01-19T15:11:33.477Z,6.80
2023-01-19T15:14:01.549Z,4.20
2023-01-19T15:16:33.248Z,5.30
2023-01-19T15:19:00.785Z,7.40
2023-01-19T15:21:27.611Z,5.80
2023-01-19T15:23:55.589Z,4.40
2023-01-19T15:26:25.284Z,4.40
2023-01-19T15:28:52.849Z,6.40
2023-01-19T15:31:21.975Z,9.60
2023-01-19T15:33:49.712Z,8.20
2023-01-19T15:36:19.045Z,10.30
2023-01-19T15:38:46.727Z,12.10
2023-01-19T15:41:32.072Z,11.80
2023-01-19T15:43:59.616Z,12.70
2023-01-19T15:46:26.767Z,16.50
2023-01-19T15:48:54.651Z,13.60
2023-01-19T15:51:26.497Z,14.00
2023-01-19T15:53:55.096Z,14.20
2023-01-19T15:56:24.832Z,14.50
2023-01-19T15:58:52.461Z,15.40
2023-01-19T16:01:22.607Z,12.80
2023-01-19T16:03:50.071Z,15.70
2023-01-19T16:06:18.139Z,14.80
2023-01-19T16:08:45.373Z,15.90
2023-01-19T16:11:16.293Z,20.00
2023-01-19T16:13:47.165Z,18.40
2023-01-19T16:16:19.740Z,16.10
2023-01-19T16:18:47.312Z,18.90
2023-01-19T16:21:14.394Z,17.40
2023-01-19T16:23:41.303Z,19.00
2023-01-19T16:26:29.883Z,17.70
2023-01-19T16:29:07.947Z,24.30
2023-01-19T16:31:34.985Z,18.40
2023-01-19T16:34:02.146Z,19.50
2023-01-19T16:36:33.185Z,25.90
2023-01-19T16:39:01.892Z,20.90
2023-01-19T16:41:29.751Z,17.60
2023-01-19T16:43:57.527Z,21.40
2023-01-19T16:46:34.093Z,27.20
2023-01-19T16:49:31.736Z,26.50
2023-01-19T16:51:59.607Z,32.30
2023-01-19T16:54:27.575Z,25.40
2023-01-19T16:56:55.761Z,20.50
2023-01-19T16:59:27.240Z,25.00
2023-01-19T17:01:54.964Z,24.40
2023-01-19T17:04:22.846Z,21.30
2023-01-19T17:06:50.314Z,19.80
2023-01-19T17:09:18.281Z,21.50
2023-01-19T17:11:48.503Z,21.50
2023-01-19T17:14:20.400Z,21.90
2023-01-19T17:16:48.105Z,24.60
2023-01-19T17:19:20.771Z,20.50
2023-01-19T17:21:49.014Z,19.70
2023-01-19T17:24:17.077Z,20.10
2023-01-19T17:26:46.004Z,21.60
2023-01-19T17:29:13.934Z,19.00
2023-01-19T17:31:40.722Z,17.20
2023-01-19T17:34:09.753Z,24.90
2023-01-19T17:36:36.615Z,20.20
2023-01-19T17:39:08.906Z,23.10
2023-01-19T17:41:36.456Z,24.70
2023-01-19T17:44:05.267Z,20.50
2023-01-19T17:46:36.226Z,19.50
2023-01-19T17:49:05.024Z,26.10
2023-01-19T17:51:32.506Z,26.60
2023-01-19T17:53:59.807Z,24.70
2023-01-19T17:56:30.356Z,21.40
2023-01-19T17:58:58.731Z,20.20
2023-01-19T18:01:28.808Z,21.90
2023-01-19T18:03:55.924Z,24.50
2023-01-19T18:06:23.346Z,23.50
2023-01-19T18:08:51.142Z,27.50
2023-01-19T18:11:19.661Z,23.30
2023-01-19T18:13:48.513Z,28.70
2023-01-19T18:16:42.127Z,26.90
2023-01-19T18:19:11.962Z,27.60
2023-01-19T18:21:38.933Z,21.40
2023-01-19T18:24:06.664Z,27.30
2023-01-19T18:26:37.670Z,28.80
2023-01-19T18:29:04.982Z,28.50
2023-01-19T18:31:31.988Z,26.50
2023-01-19T18:34:01.859Z,31.10
2023-01-19T18:36:28.895Z,27.90
2023-01-19T18:38:56.476Z,29.00
2023-01-19T18:41:23.920Z,36.10
2023-01-19T18:43:53.665Z,29.00
2023-01-19T18:46:22.879Z,28.20
2023-01-19T18:48:49.900Z,29.50
2023-01-19T18:51:17.941Z,31.70
2023-01-19T18:53:46.231Z,28.60
2023-01-19T18:56:14.514Z,29.30
2023-01-19T18:58:41.675Z,28.50
2023-01-19T19:01:25.791Z,25.70
2023-01-19T19:03:53.689Z,29.60
2023-01-19T19:06:21.141Z,27.30
2023-01-19T19:08:51.731Z,27.80
2023-01-19T19:11:20.183Z,27.90
2023-01-19T19:13:55.329Z,28.30
2023-01-19T19:16:22.713Z,28.30
2023-01-19T19:18:50.094Z,25.30
2023-01-19T19:21:19.065Z,27.50
2023-01-19T19:23:51.325Z,24.10
2023-01-19T19:26:18.386Z,29.60
2023-01-19T19:28:47.023Z,27.00
2023-01-19T19:31:17.002Z,25.90
2023-01-19T19:33:44.024Z,28.00
2023-01-19T19:36:11.965Z,27.50
2023-01-19T19:38:41.261Z,27.00
2023-01-19T19:41:09.972Z,32.80
2023-01-19T19:43:38.138Z,29.80
2023-01-19T19:46:09.169Z,32.10
2023-01-19T19:48:39.039Z,31.30
2023-01-19T19:51:17.972Z,32.10
2023-01-19T19:53:53.097Z,32.60
2023-01-19T19:56:22.820Z,30.20
2023-01-19T19:58:51.255Z,35.50
2023-01-19T20:01:25.319Z,35.40
2023-01-19T20:03:54.138Z,30.70
2023-01-19T20:06:22.747Z,30.70
2023-01-19T20:08:51.037Z,36.00
2023-01-19T20:11:26.874Z,31.40
2023-01-19T20:13:54.531Z,32.30
2023-01-19T20:16:23.334Z,38.90
2023-01-19T20:18:54.097Z,37.10
2023-01-19T20:21:22.848Z,40.60
2023-01-19T20:23:51.143Z,34.70
2023-01-19T20:26:22.013Z,37.80
2023-01-19T20:28:49.021Z,34.20
2023-01-19T20:31:23.350Z,32.40
2023-01-19T20:33:51.818Z,37.70
2023-01-19T20:36:24.356Z,36.50
2023-01-19T20:38:52.981Z,33.80
2023-01-19T20:41:20.774Z,33.30
2023-01-19T20:43:48.155Z,33.00
2023-01-19T20:46:17.710Z,35.60
2023-01-19T20:48:45.929Z,34.30
2023-01-19T20:51:13.740Z,40.90
2023-01-19T20:53:41.437Z,39.50
2023-01-19T20:56:12.072Z,39.40
2023-01-19T20:58:39.273Z,36.60
2023-01-19T21:01:25.457Z,36.40
2023-01-19T21:03:53.590Z,36.80
2023-01-19T21:06:21.569Z,36.40
2023-01-19T21:08:51.881Z,40.40
2023-01-19T21:11:21.079Z,38.20
2023-01-19T21:13:48.880Z,40.90
2023-01-19T21:16:19.137Z,37.50
2023-01-19T21:18:46.479Z,41.90
2023-01-19T21:21:29.010Z,37.80
2023-01-19T21:23:57.675Z,36.40
2023-01-19T21:26:29.729Z,38.20
2023-01-19T21:29:01.507Z,40.30
2023-01-19T21:31:28.897Z,34.20
2023-01-19T21:33:58.824Z,35.00
2023-01-19T21:36:25.966Z,38.30
2023-01-19T21:38:55.645Z,34.40
2023-01-19T21:41:23.080Z,38.90
2023-01-19T21:43:50.103Z,38.10
2023-01-19T21:46:22.773Z,38.70
2023-01-19T21:48:52.693Z,36.70
2023-01-19T21:51:19.682Z,37.40
2023-01-19T21:53:49.181Z,39.70
2023-01-19T21:56:17.214Z,42.00
2023-01-19T21:58:49.961Z,33.40
2023-01-19T22:01:17.708Z,36.30
2023-01-19T22:03:44.689Z,37.40
2023-01-19T22:06:14.036Z,38.40
2023-01-19T22:08:46.718Z,37.30
2023-01-19T22:11:44.669Z,38.00
2023-01-19T22:14:12.345Z,35.70
2023-01-19T22:16:39.423Z,46.00
2023-01-19T22:19:08.330Z,36.50
2023-01-19T22:21:36.013Z,33.90
2023-01-19T22:24:05.071Z,39.00
2023-01-19T22:26:34.142Z,41.20
2023-01-19T22:29:01.864Z,39.80
2023-01-19T22:31:29.593Z,42.70
2023-01-19T22:33:59.609Z,42.00
2023-01-19T22:36:28.935Z,40.30
2023-01-19T22:38:58.469Z,38.80
2023-01-19T22:41:30.554Z,34.70
2023-01-19T22:43:59.591Z,37.10
2023-01-19T22:46:28.928Z,36.30
2023-01-19T22:48:56.737Z,39.50
2023-01-19T22:51:24.915Z,38.10
2023-01-19T22:53:52.374Z,36.40
2023-01-19T22:56:20.180Z,35.50
2023-01-19T22:58:47.951Z,29.70
2023-01-19T23:01:30.409Z,27.10
2023-01-19T23:03:57.461Z,28.80
2023-01-19T23:06:27.043Z,21.60
2023-01-19T23:09:00.291Z,24.20
2023-01-19T23:11:29.914Z,20.30
2023-01-19T23:13:58.359Z,18.10
2023-01-19T23:16:25.801Z,18.10
2023-01-19T23:18:55.674Z,15.20
2023-01-19T23:21:29.363Z,11.70
2023-01-19T23:24:01.804Z,12.20
2023-01-19T23:26:30.945Z,8.90
2023-01-19T23:29:01.047Z,9.10
2023-01-19T23:31:32.165Z,7.80
2023-01-19T23:34:01.546Z,8.40
2023-01-19T23:36:30.477Z,8.30
2023-01-19T23:38:59.991Z,10.40
2023-01-19T23:41:29.015Z,8.60
2023-01-19T23:43:56.048Z,9.50
2023-01-19T23:46:23.026Z,6.70
2023-01-19T23:48:50.403Z,9.10
2023-01-19T23:51:25.969Z,10.30
2023-01-19T23:53:53.757Z,10.70
2023-01-19T23:56:25.316Z,9.30
2023-01-19T23:58:54.686Z,9.60
